sensor_id;sensor_type;location;lat;lon;timestamp;pressure;altitude;pressure_sealevel;temperature
73685;BMP280;61985;51.070;14.064;2022-11-28T00:00:23;99054.22;;;1.89
73685;BMP280;61985;51.070;14.064;2022-11-28T00:02:48;99058.38;;;1.86
73685;BMP280;61985;51.070;14.064;2022-11-28T00:05:13;99057.88;;;1.80
73685;BMP280;61985;51.070;14.064;2022-11-28T00:07:39;99054.22;;;1.89
73685;BMP280;61985;51.070;14.064;2022-11-28T00:10:05;99052.22;;;1.82
73685;BMP280;61985;51.070;14.064;2022-11-28T00:12:33;99054.09;;;1.82
73685;BMP280;61985;51.070;14.064;2022-11-28T00:14:58;99062.44;;;1.80
73685;BMP280;61985;51.070;14.064;2022-11-28T00:17:23;99059.41;;;1.82
73685;BMP280;61985;51.070;14.064;2022-11-28T00:19:49;99052.22;;;1.82
73685;BMP280;61985;51.070;14.064;2022-11-28T00:22:14;99051.09;;;1.83
73685;BMP280;61985;51.070;14.064;2022-11-28T00:24:39;99050.44;;;1.90
73685;BMP280;61985;51.070;14.064;2022-11-28T00:27:05;99049.81;;;1.96
73685;BMP280;61985;51.070;14.064;2022-11-28T00:29:30;99055.97;;;2.01
73685;BMP280;61985;51.070;14.064;2022-11-28T00:31:56;99060.59;;;2.04
73685;BMP280;61985;51.070;14.064;2022-11-28T00:34:21;99054.16;;;2.05
73685;BMP280;61985;51.070;14.064;2022-11-28T00:36:47;99057.28;;;2.10
73685;BMP280;61985;51.070;14.064;2022-11-28T00:39:13;99057.03;;;2.15
73685;BMP280;61985;51.070;14.064;2022-11-28T00:41:39;99057.03;;;2.15
73685;BMP280;61985;51.070;14.064;2022-11-28T00:44:05;99046.75;;;2.14
73685;BMP280;61985;51.070;14.064;2022-11-28T00:46:30;99047.56;;;2.18
73685;BMP280;61985;51.070;14.064;2022-11-28T00:48:57;99043.16;;;2.26
73685;BMP280;61985;51.070;14.064;2022-11-28T00:51:25;99035.09;;;2.22
73685;BMP280;61985;51.070;14.064;2022-11-28T00:53:53;99029.59;;;2.31
73685;BMP280;61985;51.070;14.064;2022-11-28T00:56:21;99027.97;;;2.26
73685;BMP280;61985;51.070;14.064;2022-11-28T00:58:47;99022.16;;;2.21
73685;BMP280;61985;51.070;14.064;2022-11-28T01:01:26;99018.81;;;2.24
73685;BMP280;61985;51.070;14.064;2022-11-28T01:03:54;99011.59;;;2.24
73685;BMP280;61985;51.070;14.064;2022-11-28T01:06:31;99016.19;;;2.27
73685;BMP280;61985;51.070;14.064;2022-11-28T01:08:58;99023.13;;;2.32
73685;BMP280;61985;51.070;14.064;2022-11-28T01:11:24;99012.53;;;2.35
73685;BMP280;61985;51.070;14.064;2022-11-28T01:13:53;99017.69;;;2.25
73685;BMP280;61985;51.070;14.064;2022-11-28T01:16:18;99012.78;;;2.27
73685;BMP280;61985;51.070;14.064;2022-11-28T01:18:44;99004.09;;;2.30
73685;BMP280;61985;51.070;14.064;2022-11-28T01:21:09;98998.44;;;2.31
73685;BMP280;61985;51.070;14.064;2022-11-28T01:23:35;98998.44;;;2.31
73685;BMP280;61985;51.070;14.064;2022-11-28T01:26:01;98997.66;;;2.31
73685;BMP280;61985;51.070;14.064;2022-11-28T01:28:27;99004.91;;;2.34
73685;BMP280;61985;51.070;14.064;2022-11-28T01:30:53;98996.22;;;2.37
73685;BMP280;61985;51.070;14.064;2022-11-28T01:33:18;98978.25;;;2.30
73685;BMP280;61985;51.070;14.064;2022-11-28T01:35:53;98986.75;;;2.40
73685;BMP280;61985;51.070;14.064;2022-11-28T01:38:18;98990.81;;;2.30
73685;BMP280;61985;51.070;14.064;2022-11-28T01:40:45;98984.72;;;2.29
73685;BMP280;61985;51.070;14.064;2022-11-28T01:43:10;98973.59;;;2.24
73685;BMP280;61985;51.070;14.064;2022-11-28T01:45:35;98973.56;;;2.20
73685;BMP280;61985;51.070;14.064;2022-11-28T01:48:03;98971.66;;;2.21
73685;BMP280;61985;51.070;14.064;2022-11-28T01:50:30;98973.97;;;2.22
73685;BMP280;61985;51.070;14.064;2022-11-28T01:53:00;98976.13;;;2.16
73685;BMP280;61985;51.070;14.064;2022-11-28T01:55:29;98973.34;;;2.09
73685;BMP280;61985;51.070;14.064;2022-11-28T01:57:55;98961.59;;;2.10
73685;BMP280;61985;51.070;14.064;2022-11-28T02:00:22;98974.53;;;2.12
73685;BMP280;61985;51.070;14.064;2022-11-28T02:02:58;98959.94;;;2.02
73685;BMP280;61985;51.070;14.064;2022-11-28T02:05:25;98967.59;;;2.07
73685;BMP280;61985;51.070;14.064;2022-11-28T02:07:50;98961.13;;;2.05
73685;BMP280;61985;51.070;14.064;2022-11-28T02:10:20;98962.22;;;2.04
73685;BMP280;61985;51.070;14.064;2022-11-28T02:13:17;98962.72;;;2.09
73685;BMP280;61985;51.070;14.064;2022-11-28T02:16:19;98956.56;;;2.05
73685;BMP280;61985;51.070;14.064;2022-11-28T02:21:58;98960.34;;;2.04
73685;BMP280;61985;51.070;14.064;2022-11-28T02:27:27;98947.47;;;2.06
73685;BMP280;61985;51.070;14.064;2022-11-28T02:35:19;98940.00;;;1.92
73685;BMP280;61985;51.070;14.064;2022-11-28T02:37:49;98931.41;;;1.99
73685;BMP280;61985;51.070;14.064;2022-11-28T02:40:23;98936.22;;;1.93
73685;BMP280;61985;51.070;14.064;2022-11-28T02:51:48;98923.63;;;1.90
73685;BMP280;61985;51.070;14.064;2022-11-28T02:54:07;98920.63;;;1.92
73685;BMP280;61985;51.070;14.064;2022-11-28T02:56:34;98917.56;;;1.90
73685;BMP280;61985;51.070;14.064;2022-11-28T02:59:00;98916.00;;;1.85
73685;BMP280;61985;51.070;14.064;2022-11-28T03:01:32;98917.09;;;1.84
73685;BMP280;61985;51.070;14.064;2022-11-28T03:09:37;98899.72;;;1.90
73685;BMP280;61985;51.070;14.064;2022-11-28T03:12:13;98892.53;;;1.91
73685;BMP280;61985;51.070;14.064;2022-11-28T03:15:01;98905.41;;;1.89
73685;BMP280;61985;51.070;14.064;2022-11-28T03:20:27;98891.66;;;1.83
73685;BMP280;61985;51.070;14.064;2022-11-28T03:30:53;98898.31;;;1.73
73685;BMP280;61985;51.070;14.064;2022-11-28T03:33:20;98884.75;;;1.78
73685;BMP280;61985;51.070;14.064;2022-11-28T03:35:51;98887.75;;;1.77
73685;BMP280;61985;51.070;14.064;2022-11-28T03:38:36;98899.84;;;1.74
73685;BMP280;61985;51.070;14.064;2022-11-28T03:41:09;98885.38;;;1.72
73685;BMP280;61985;51.070;14.064;2022-11-28T03:43:41;98889.56;;;1.73
73685;BMP280;61985;51.070;14.064;2022-11-28T03:46:10;98885.88;;;1.77
73685;BMP280;61985;51.070;14.064;2022-11-28T03:48:43;98887.28;;;1.71
73685;BMP280;61985;51.070;14.064;2022-11-28T03:51:19;98886.56;;;1.74
73685;BMP280;61985;51.070;14.064;2022-11-28T03:54:05;98877.06;;;1.73
73685;BMP280;61985;51.070;14.064;2022-11-28T03:56:38;98878.19;;;1.72
73685;BMP280;61985;51.070;14.064;2022-11-28T04:02:05;98863.03;;;1.53
73685;BMP280;61985;51.070;14.064;2022-11-28T04:04:36;98870.25;;;1.53
73685;BMP280;61985;51.070;14.064;2022-11-28T04:07:26;98867.28;;;1.58
73685;BMP280;61985;51.070;14.064;2022-11-28T04:10:11;98861.75;;;1.67
73685;BMP280;61985;51.070;14.064;2022-11-28T04:12:58;98862.41;;;1.60
73685;BMP280;61985;51.070;14.064;2022-11-28T04:18:19;98863.81;;;1.54
73685;BMP280;61985;51.070;14.064;2022-11-28T04:20:50;98868.44;;;1.57
73685;BMP280;61985;51.070;14.064;2022-11-28T04:23:19;98860.47;;;1.57
73685;BMP280;61985;51.070;14.064;2022-11-28T04:26:00;98864.53;;;1.51
73685;BMP280;61985;51.070;14.064;2022-11-28T04:28:30;98861.91;;;1.54
73685;BMP280;61985;51.070;14.064;2022-11-28T04:30:58;98855.41;;;1.52
73685;BMP280;61985;51.070;14.064;2022-11-28T04:33:25;98871.50;;;1.59
73685;BMP280;61985;51.070;14.064;2022-11-28T04:35:54;98871.44;;;1.55
73685;BMP280;61985;51.070;14.064;2022-11-28T04:38:22;98858.50;;;1.54
73685;BMP280;61985;51.070;14.064;2022-11-28T04:40:53;98863.94;;;1.61
73685;BMP280;61985;51.070;14.064;2022-11-28T04:43:29;98861.63;;;1.59
73685;BMP280;61985;51.070;14.064;2022-11-28T04:46:00;98846.47;;;1.60
73685;BMP280;61985;51.070;14.064;2022-11-28T04:48:28;98855.19;;;1.60
73685;BMP280;61985;51.070;14.064;2022-11-28T04:51:26;98854.84;;;1.62
73685;BMP280;61985;51.070;14.064;2022-11-28T04:54:00;98848.28;;;1.56
73685;BMP280;61985;51.070;14.064;2022-11-28T04:56:45;98854.00;;;1.58
73685;BMP280;61985;51.070;14.064;2022-11-28T04:59:12;98848.06;;;1.65
73685;BMP280;61985;51.070;14.064;2022-11-28T05:01:39;98840.03;;;1.61
73685;BMP280;61985;51.070;14.064;2022-11-28T05:04:05;98851.53;;;1.69
73685;BMP280;61985;51.070;14.064;2022-11-28T05:06:33;98845.16;;;1.73
73685;BMP280;61985;51.070;14.064;2022-11-28T05:08:59;98842.94;;;1.75
73685;BMP280;61985;51.070;14.064;2022-11-28T05:11:25;98842.50;;;1.73
73685;BMP280;61985;51.070;14.064;2022-11-28T05:13:51;98839.22;;;1.80
73685;BMP280;61985;51.070;14.064;2022-11-28T05:16:17;98839.28;;;1.84
73685;BMP280;61985;51.070;14.064;2022-11-28T05:18:42;98821.50;;;1.88
73685;BMP280;61985;51.070;14.064;2022-11-28T05:21:08;98829.56;;;1.95
73685;BMP280;61985;51.070;14.064;2022-11-28T05:23:38;98828.81;;;1.94
73685;BMP280;61985;51.070;14.064;2022-11-28T05:26:08;98835.16;;;1.86
73685;BMP280;61985;51.070;14.064;2022-11-28T05:28:34;98824.25;;;1.95
73685;BMP280;61985;51.070;14.064;2022-11-28T05:31:00;98835.31;;;1.97
73685;BMP280;61985;51.070;14.064;2022-11-28T05:33:28;98832.66;;;1.97
73685;BMP280;61985;51.070;14.064;2022-11-28T05:35:54;98832.28;;;1.98
73685;BMP280;61985;51.070;14.064;2022-11-28T05:38:20;98822.41;;;1.99
73685;BMP280;61985;51.070;14.064;2022-11-28T05:40:45;98817.50;;;2.01
73685;BMP280;61985;51.070;14.064;2022-11-28T05:43:11;98820.16;;;2.01
73685;BMP280;61985;51.070;14.064;2022-11-28T05:45:41;98815.22;;;1.99
73685;BMP280;61985;51.070;14.064;2022-11-28T05:48:06;98811.44;;;2.01
73685;BMP280;61985;51.070;14.064;2022-11-28T05:50:32;98816.00;;;2.00
73685;BMP280;61985;51.070;14.064;2022-11-28T05:52:57;98814.56;;;2.06
73685;BMP280;61985;51.070;14.064;2022-11-28T05:55:23;98808.81;;;2.04
73685;BMP280;61985;51.070;14.064;2022-11-28T05:57:48;98810.31;;;2.02
73685;BMP280;61985;51.070;14.064;2022-11-28T06:00:14;98803.81;;;1.99
73685;BMP280;61985;51.070;14.064;2022-11-28T06:02:39;98793.94;;;1.99
73685;BMP280;61985;51.070;14.064;2022-11-28T06:05:05;98791.63;;;1.98
73685;BMP280;61985;51.070;14.064;2022-11-28T06:07:30;98792.47;;;2.02
73685;BMP280;61985;51.070;14.064;2022-11-28T06:09:56;98781.00;;;1.98
73685;BMP280;61985;51.070;14.064;2022-11-28T06:12:21;98790.75;;;1.90
73685;BMP280;61985;51.070;14.064;2022-11-28T06:14:47;98788.59;;;1.96
73685;BMP280;61985;51.070;14.064;2022-11-28T06:17:12;98796.19;;;1.97
73685;BMP280;61985;51.070;14.064;2022-11-28T06:19:37;98793.03;;;1.88
73685;BMP280;61985;51.070;14.064;2022-11-28T06:22:03;98779.34;;;1.86
73685;BMP280;61985;51.070;14.064;2022-11-28T06:24:28;98782.50;;;1.95
73685;BMP280;61985;51.070;14.064;2022-11-28T06:26:54;98792.00;;;1.96
73685;BMP280;61985;51.070;14.064;2022-11-28T06:29:19;98782.44;;;1.92
73685;BMP280;61985;51.070;14.064;2022-11-28T06:31:45;98786.63;;;1.93
73685;BMP280;61985;51.070;14.064;2022-11-28T06:34:11;98796.25;;;2.01
73685;BMP280;61985;51.070;14.064;2022-11-28T06:36:37;98784.19;;;2.07
73685;BMP280;61985;51.070;14.064;2022-11-28T06:39:02;98783.78;;;2.05
73685;BMP280;61985;51.070;14.064;2022-11-28T06:41:28;98787.56;;;2.04
73685;BMP280;61985;51.070;14.064;2022-11-28T06:43:54;98764.09;;;2.10
73685;BMP280;61985;51.070;14.064;2022-11-28T06:46:20;98777.75;;;2.08
73685;BMP280;61985;51.070;14.064;2022-11-28T06:48:47;98760.69;;;2.09
73685;BMP280;61985;51.070;14.064;2022-11-28T06:51:13;98772.13;;;2.13
73685;BMP280;61985;51.070;14.064;2022-11-28T06:53:39;98779.00;;;2.14
73685;BMP280;61985;51.070;14.064;2022-11-28T06:56:11;98782.34;;;2.11
73685;BMP280;61985;51.070;14.064;2022-11-28T06:58:38;98791.09;;;2.12
73685;BMP280;61985;51.070;14.064;2022-11-28T07:01:15;98785.06;;;2.15
73685;BMP280;61985;51.070;14.064;2022-11-28T07:03:41;98785.41;;;2.13
73685;BMP280;61985;51.070;14.064;2022-11-28T07:06:08;98779.91;;;2.26
73685;BMP280;61985;51.070;14.064;2022-11-28T07:08:34;98765.09;;;2.25
73685;BMP280;61985;51.070;14.064;2022-11-28T07:11:12;98766.97;;;2.24
73685;BMP280;61985;51.070;14.064;2022-11-28T07:13:38;98769.25;;;2.26
73685;BMP280;61985;51.070;14.064;2022-11-28T07:16:04;98772.75;;;2.30
73685;BMP280;61985;51.070;14.064;2022-11-28T07:18:30;98754.53;;;2.32
73685;BMP280;61985;51.070;14.064;2022-11-28T07:20:55;98761.41;;;2.36
73685;BMP280;61985;51.070;14.064;2022-11-28T07:23:20;98762.59;;;2.39
73685;BMP280;61985;51.070;14.064;2022-11-28T07:25:46;98753.06;;;2.38
73685;BMP280;61985;51.070;14.064;2022-11-28T07:28:11;98754.22;;;2.37
73685;BMP280;61985;51.070;14.064;2022-11-28T07:30:37;98748.53;;;2.39
73685;BMP280;61985;51.070;14.064;2022-11-28T07:33:02;98749.44;;;2.50
73685;BMP280;61985;51.070;14.064;2022-11-28T07:35:28;98748.59;;;2.46
73685;BMP280;61985;51.070;14.064;2022-11-28T07:37:53;98750.63;;;2.52
73685;BMP280;61985;51.070;14.064;2022-11-28T07:40:18;98742.56;;;2.49
73685;BMP280;61985;51.070;14.064;2022-11-28T07:42:46;98748.25;;;2.47
73685;BMP280;61985;51.070;14.064;2022-11-28T07:45:13;98738.81;;;2.53
73685;BMP280;61985;51.070;14.064;2022-11-28T07:47:38;98742.28;;;2.54
73685;BMP280;61985;51.070;14.064;2022-11-28T07:50:04;98742.63;;;2.52
73685;BMP280;61985;51.070;14.064;2022-11-28T07:52:30;98743.78;;;2.55
73685;BMP280;61985;51.070;14.064;2022-11-28T07:54:55;98728.63;;;2.56
73685;BMP280;61985;51.070;14.064;2022-11-28T07:57:20;98735.53;;;2.64
73685;BMP280;61985;51.070;14.064;2022-11-28T07:59:46;98723.72;;;2.61
73685;BMP280;61985;51.070;14.064;2022-11-28T08:02:11;98730.94;;;2.61
73685;BMP280;61985;51.070;14.064;2022-11-28T08:04:37;98731.38;;;2.66
73685;BMP280;61985;51.070;14.064;2022-11-28T08:07:02;98724.94;;;2.71
73685;BMP280;61985;51.070;14.064;2022-11-28T08:09:29;98734.06;;;2.70
73685;BMP280;61985;51.070;14.064;2022-11-28T08:11:54;98726.50;;;2.76
73685;BMP280;61985;51.070;14.064;2022-11-28T08:14:20;98740.59;;;2.76
73685;BMP280;61985;51.070;14.064;2022-11-28T08:16:45;98736.41;;;2.75
73685;BMP280;61985;51.070;14.064;2022-11-28T08:19:11;98718.22;;;2.81
73685;BMP280;61985;51.070;14.064;2022-11-28T08:21:37;98722.41;;;2.82
73685;BMP280;61985;51.070;14.064;2022-11-28T08:24:03;98709.09;;;2.82
73685;BMP280;61985;51.070;14.064;2022-11-28T08:26:30;98718.28;;;2.88
73685;BMP280;61985;51.070;14.064;2022-11-28T08:28:57;98722.47;;;2.89
73685;BMP280;61985;51.070;14.064;2022-11-28T08:31:25;98710.00;;;2.93
73685;BMP280;61985;51.070;14.064;2022-11-28T08:33:52;98721.41;;;2.94
73685;BMP280;61985;51.070;14.064;2022-11-28T08:36:18;98723.66;;;2.92
73685;BMP280;61985;51.070;14.064;2022-11-28T08:38:45;98722.94;;;2.95
73685;BMP280;61985;51.070;14.064;2022-11-28T08:41:13;98710.06;;;3.04
73685;BMP280;61985;51.070;14.064;2022-11-28T08:43:39;98726.75;;;2.97
73685;BMP280;61985;51.070;14.064;2022-11-28T08:46:07;98721.44;;;3.01
73685;BMP280;61985;51.070;14.064;2022-11-28T08:48:34;98716.13;;;3.01
73685;BMP280;61985;51.070;14.064;2022-11-28T08:50:59;98722.22;;;3.01
73685;BMP280;61985;51.070;14.064;2022-11-28T08:53:25;98726.78;;;3.01
73685;BMP280;61985;51.070;14.064;2022-11-28T08:55:51;98721.47;;;3.04
73685;BMP280;61985;51.070;14.064;2022-11-28T08:58:16;98704.03;;;3.07
73685;BMP280;61985;51.070;14.064;2022-11-28T09:00:41;98717.72;;;3.09
73685;BMP280;61985;51.070;14.064;2022-11-28T09:03:11;98715.91;;;3.17
73685;BMP280;61985;51.070;14.064;2022-11-28T09:05:37;98714.00;;;3.17
73685;BMP280;61985;51.070;14.064;2022-11-28T09:08:02;98714.03;;;3.21
73685;BMP280;61985;51.070;14.064;2022-11-28T09:10:28;98722.44;;;3.26
73685;BMP280;61985;51.070;14.064;2022-11-28T09:12:53;98713.31;;;3.27
73685;BMP280;61985;51.070;14.064;2022-11-28T09:15:18;98726.19;;;3.22
73685;BMP280;61985;51.070;14.064;2022-11-28T09:17:45;98722.09;;;3.32
73685;BMP280;61985;51.070;14.064;2022-11-28T09:20:12;98715.91;;;3.20
73685;BMP280;61985;51.070;14.064;2022-11-28T09:22:37;98704.91;;;3.22
73685;BMP280;61985;51.070;14.064;2022-11-28T09:25:03;98715.19;;;3.23
73685;BMP280;61985;51.070;14.064;2022-11-28T09:27:28;98712.50;;;3.20
73685;BMP280;61985;51.070;14.064;2022-11-28T09:29:54;98700.66;;;3.17
73685;BMP280;61985;51.070;14.064;2022-11-28T09:32:19;98708.28;;;3.19
73685;BMP280;61985;51.070;14.064;2022-11-28T09:34:44;98710.97;;;3.19
73685;BMP280;61985;51.070;14.064;2022-11-28T09:37:10;98707.53;;;3.18
73685;BMP280;61985;51.070;14.064;2022-11-28T09:39:35;98706.06;;;3.21
73685;BMP280;61985;51.070;14.064;2022-11-28T09:42:15;98705.69;;;3.22
73685;BMP280;61985;51.070;14.064;2022-11-28T09:44:47;98699.25;;;3.27
73685;BMP280;61985;51.070;14.064;2022-11-28T09:47:22;98710.63;;;3.27
73685;BMP280;61985;51.070;14.064;2022-11-28T09:49:52;98703.47;;;3.32
73685;BMP280;61985;51.070;14.064;2022-11-28T09:53:02;98695.84;;;3.30
73685;BMP280;61985;51.070;14.064;2022-11-28T09:57:55;98696.22;;;3.32
73685;BMP280;61985;51.070;14.064;2022-11-28T10:00:45;98703.09;;;3.33
73685;BMP280;61985;51.070;14.064;2022-11-28T10:11:00;98690.59;;;3.41
73685;BMP280;61985;51.070;14.064;2022-11-28T10:13:40;98688.69;;;3.41
73685;BMP280;61985;51.070;14.064;2022-11-28T10:16:23;98688.31;;;3.43
73685;BMP280;61985;51.070;14.064;2022-11-28T10:18:55;98681.53;;;3.49
73685;BMP280;61985;51.070;14.064;2022-11-28T10:21:34;98671.97;;;3.44
73685;BMP280;61985;51.070;14.064;2022-11-28T10:24:03;98663.25;;;3.51
73685;BMP280;61985;51.070;14.064;2022-11-28T10:26:45;98654.94;;;3.60
73685;BMP280;61985;51.070;14.064;2022-11-28T10:31:42;98664.53;;;3.72
73685;BMP280;61985;51.070;14.064;2022-11-28T10:34:17;98656.47;;;3.64
73685;BMP280;61985;51.070;14.064;2022-11-28T10:37:00;98646.94;;;3.63
73685;BMP280;61985;51.070;14.064;2022-11-28T10:39:27;98658.03;;;3.66
73685;BMP280;61985;51.070;14.064;2022-11-28T10:42:04;98648.88;;;3.67
73685;BMP280;61985;51.070;14.064;2022-11-28T10:50:30;98661.44;;;3.70
73685;BMP280;61985;51.070;14.064;2022-11-28T11:01:20;98637.84;;;3.68
73685;BMP280;61985;51.070;14.064;2022-11-28T11:03:46;98636.34;;;3.71
73685;BMP280;61985;51.070;14.064;2022-11-28T11:06:12;98638.25;;;3.74
73685;BMP280;61985;51.070;14.064;2022-11-28T11:08:39;98630.66;;;3.76
73685;BMP280;61985;51.070;14.064;2022-11-28T11:11:27;98634.84;;;3.77
73685;BMP280;61985;51.070;14.064;2022-11-28T11:14:05;98628.34;;;3.74
73685;BMP280;61985;51.070;14.064;2022-11-28T11:16:51;98610.88;;;3.77
73685;BMP280;61985;51.070;14.064;2022-11-28T11:22:00;98626.06;;;3.73
73685;BMP280;61985;51.070;14.064;2022-11-28T11:24:25;98615.03;;;3.74
73685;BMP280;61985;51.070;14.064;2022-11-28T11:26:51;98613.88;;;3.79
73685;BMP280;61985;51.070;14.064;2022-11-28T11:29:20;98624.56;;;3.79
73685;BMP280;61985;51.070;14.064;2022-11-28T11:31:50;98623.78;;;3.78
73685;BMP280;61985;51.070;14.064;2022-11-28T11:34:18;98620.38;;;3.81
73685;BMP280;61985;51.070;14.064;2022-11-28T11:36:44;98618.47;;;3.78
73685;BMP280;61985;51.070;14.064;2022-11-28T11:41:40;98623.88;;;3.93
73685;BMP280;61985;51.070;14.064;2022-11-28T11:47:05;98631.47;;;3.87
73685;BMP280;61985;51.070;14.064;2022-11-28T11:49:40;98623.09;;;3.89
73685;BMP280;61985;51.070;14.064;2022-11-28T11:54:51;98626.16;;;3.94
73685;BMP280;61985;51.070;14.064;2022-11-28T11:57:20;98615.09;;;3.89
73685;BMP280;61985;51.070;14.064;2022-11-28T11:59:52;98608.66;;;3.93
73685;BMP280;61985;51.070;14.064;2022-11-28T12:04:57;98611.66;;;3.88
73685;BMP280;61985;51.070;14.064;2022-11-28T12:07:32;98602.91;;;3.91
73685;BMP280;61985;51.070;14.064;2022-11-28T12:10:02;98617.78;;;3.89
73685;BMP280;61985;51.070;14.064;2022-11-28T12:12:30;98609.72;;;3.85
73685;BMP280;61985;51.070;14.064;2022-11-28T12:14:59;98614.72;;;3.90
73685;BMP280;61985;51.070;14.064;2022-11-28T12:23:14;98611.28;;;3.90
73685;BMP280;61985;51.070;14.064;2022-11-28T12:25:58;98609.78;;;3.92
73685;BMP280;61985;51.070;14.064;2022-11-28T12:31:11;98601.78;;;3.92
73685;BMP280;61985;51.070;14.064;2022-11-28T12:34:07;98605.56;;;3.88
73685;BMP280;61985;51.070;14.064;2022-11-28T12:37:15;98609.00;;;3.88
73685;BMP280;61985;51.070;14.064;2022-11-28T12:39:53;98597.19;;;3.89
73685;BMP280;61985;51.070;14.064;2022-11-28T12:50:36;98611.31;;;4.00
73685;BMP280;61985;51.070;14.064;2022-11-28T12:55:49;98600.66;;;3.97
73685;BMP280;61985;51.070;14.064;2022-11-28T12:58:28;98601.78;;;3.96
73685;BMP280;61985;51.070;14.064;2022-11-28T13:03:49;98590.00;;;3.93
73685;BMP280;61985;51.070;14.064;2022-11-28T13:14:32;98590.75;;;3.90
73685;BMP280;61985;51.070;14.064;2022-11-28T13:17:12;98596.44;;;3.92
73685;BMP280;61985;51.070;14.064;2022-11-28T13:19:58;98594.53;;;3.89
73685;BMP280;61985;51.070;14.064;2022-11-28T13:22:46;98601.03;;;3.92
73685;BMP280;61985;51.070;14.064;2022-11-28T13:25:33;98588.44;;;3.92
73685;BMP280;61985;51.070;14.064;2022-11-28T13:30:44;98599.50;;;3.94
73685;BMP280;61985;51.070;14.064;2022-11-28T13:33:46;98607.47;;;3.87
73685;BMP280;61985;51.070;14.064;2022-11-28T13:36:38;98606.72;;;3.90
73685;BMP280;61985;51.070;14.064;2022-11-28T13:44:47;98603.66;;;3.85
73685;BMP280;61985;51.070;14.064;2022-11-28T13:49:45;98611.63;;;3.77
73685;BMP280;61985;51.070;14.064;2022-11-28T13:54:44;98609.34;;;3.76
73685;BMP280;61985;51.070;14.064;2022-11-28T13:57:30;98608.97;;;3.77
73685;BMP280;61985;51.070;14.064;2022-11-28T14:00:22;98610.06;;;3.73
73685;BMP280;61985;51.070;14.064;2022-11-28T14:02:55;98604.75;;;3.69
73685;BMP280;61985;51.070;14.064;2022-11-28T14:05:35;98605.09;;;3.68
73685;BMP280;61985;51.070;14.064;2022-11-28T14:08:03;98606.22;;;3.63
73685;BMP280;61985;51.070;14.064;2022-11-28T14:13:28;98620.72;;;3.66
73685;BMP280;61985;51.070;14.064;2022-11-28T14:27:04;98605.84;;;3.61
73685;BMP280;61985;51.070;14.064;2022-11-28T14:29:51;98599.34;;;3.58
73685;BMP280;61985;51.070;14.064;2022-11-28T14:32:40;98603.94;;;3.61
73685;BMP280;61985;51.070;14.064;2022-11-28T14:43:27;98611.13;;;3.57
73685;BMP280;61985;51.070;14.064;2022-11-28T14:54:32;98618.75;;;3.55
73685;BMP280;61985;51.070;14.064;2022-11-28T14:57:02;98622.19;;;3.59
73685;BMP280;61985;51.070;14.064;2022-11-28T14:59:37;98618.00;;;3.62
73685;BMP280;61985;51.070;14.064;2022-11-28T15:15:28;98625.59;;;3.56
73685;BMP280;61985;51.070;14.064;2022-11-28T15:17:54;98627.13;;;3.57
73685;BMP280;61985;51.070;14.064;2022-11-28T15:20:27;98628.25;;;3.53
73685;BMP280;61985;51.070;14.064;2022-11-28T15:22:54;98629.03;;;3.57
73685;BMP280;61985;51.070;14.064;2022-11-28T15:25:22;98632.06;;;3.55
73685;BMP280;61985;51.070;14.064;2022-11-28T15:27:48;98631.31;;;3.55
73685;BMP280;61985;51.070;14.064;2022-11-28T15:30:22;98626.34;;;3.53
73685;BMP280;61985;51.070;14.064;2022-11-28T15:32:55;98629.75;;;3.54
73685;BMP280;61985;51.070;14.064;2022-11-28T15:35:22;98629.00;;;3.53
73685;BMP280;61985;51.070;14.064;2022-11-28T15:37:57;98629.41;;;3.52
73685;BMP280;61985;51.070;14.064;2022-11-28T15:40:33;98632.06;;;3.55
73685;BMP280;61985;51.070;14.064;2022-11-28T15:43:00;98629.41;;;3.59
73685;BMP280;61985;51.070;14.064;2022-11-28T15:45:30;98621.03;;;3.60
73685;BMP280;61985;51.070;14.064;2022-11-28T15:47:56;98632.81;;;3.56
73685;BMP280;61985;51.070;14.064;2022-11-28T15:50:24;98624.44;;;3.57
73685;BMP280;61985;51.070;14.064;2022-11-28T15:52:58;98627.13;;;3.57
73685;BMP280;61985;51.070;14.064;2022-11-28T15:55:32;98637.41;;;3.59
73685;BMP280;61985;51.070;14.064;2022-11-28T15:58:16;98622.16;;;3.52
73685;BMP280;61985;51.070;14.064;2022-11-28T16:00:46;98628.25;;;3.49
73685;BMP280;61985;51.070;14.064;2022-11-28T16:03:15;98632.06;;;3.52
73685;BMP280;61985;51.070;14.064;2022-11-28T16:05:42;98630.16;;;3.56
73685;BMP280;61985;51.070;14.064;2022-11-28T16:08:36;98630.94;;;3.56
73685;BMP280;61985;51.070;14.064;2022-11-28T16:11:05;98640.06;;;3.52
73685;BMP280;61985;51.070;14.064;2022-11-28T16:13:32;98633.97;;;3.58
73685;BMP280;61985;51.070;14.064;2022-11-28T16:15:59;98634.75;;;3.59
73685;BMP280;61985;51.070;14.064;2022-11-28T16:18:26;98639.69;;;3.57
73685;BMP280;61985;51.070;14.064;2022-11-28T16:20:53;98632.47;;;3.61
73685;BMP280;61985;51.070;14.064;2022-11-28T16:23:33;98624.44;;;3.57
73685;BMP280;61985;51.070;14.064;2022-11-28T16:25:59;98628.28;;;3.56
73685;BMP280;61985;51.070;14.064;2022-11-28T16:30:55;98620.66;;;3.58
73685;BMP280;61985;51.070;14.064;2022-11-28T16:33:41;98617.63;;;3.56
73685;BMP280;61985;51.070;14.064;2022-11-28T16:38:33;98613.41;;;3.55
73685;BMP280;61985;51.070;14.064;2022-11-28T16:40:59;98617.63;;;3.63
73685;BMP280;61985;51.070;14.064;2022-11-28T16:43:38;98613.84;;;3.61
73685;BMP280;61985;51.070;14.064;2022-11-28T16:46:06;98615.34;;;3.58
73685;BMP280;61985;51.070;14.064;2022-11-28T16:48:48;98615.72;;;3.60
73685;BMP280;61985;51.070;14.064;2022-11-28T16:53:47;98613.09;;;3.64
73685;BMP280;61985;51.070;14.064;2022-11-28T16:56:22;98619.56;;;3.67
73685;BMP280;61985;51.070;14.064;2022-11-28T16:58:50;98621.47;;;3.62
73685;BMP280;61985;51.070;14.064;2022-11-28T17:01:17;98616.13;;;3.62
73685;BMP280;61985;51.070;14.064;2022-11-28T17:03:53;98624.44;;;3.57
73685;BMP280;61985;51.070;14.064;2022-11-28T17:06:32;98622.97;;;3.63
73685;BMP280;61985;51.070;14.064;2022-11-28T17:09:03;98620.28;;;3.60
73685;BMP280;61985;51.070;14.064;2022-11-28T17:11:32;98622.19;;;3.59
73685;BMP280;61985;51.070;14.064;2022-11-28T17:13:59;98616.13;;;3.62
73685;BMP280;61985;51.070;14.064;2022-11-28T17:16:26;98614.59;;;3.65
73685;BMP280;61985;51.070;14.064;2022-11-28T17:18:52;98613.09;;;3.68
73685;BMP280;61985;51.070;14.064;2022-11-28T17:21:26;98610.44;;;3.68
73685;BMP280;61985;51.070;14.064;2022-11-28T17:23:53;98602.44;;;3.68